createdAt,value
2022-10-05T00:02:26.435Z,12.17
2022-10-05T00:04:55.680Z,12.12
2022-10-05T00:07:24.048Z,12.13
2022-10-05T00:09:58.265Z,12.10
2022-10-05T00:12:26.575Z,12.08
2022-10-05T00:14:56.335Z,12.07
2022-10-05T00:17:25.458Z,12.05
2022-10-05T00:19:52.993Z,12.02
2022-10-05T00:22:29.434Z,12.00
2022-10-05T00:24:58.629Z,11.97
2022-10-05T00:27:33.167Z,11.93
2022-10-05T00:30:01.556Z,11.93
2022-10-05T00:32:28.328Z,11.91
2022-10-05T00:34:57.290Z,11.91
2022-10-05T00:37:23.990Z,11.89
2022-10-05T00:39:50.734Z,11.87
2022-10-05T00:42:34.603Z,11.85
2022-10-05T00:45:14.116Z,11.85
2022-10-05T00:47:43.838Z,11.83
2022-10-05T00:50:28.925Z,11.85
2022-10-05T00:53:10.720Z,11.81
2022-10-05T00:55:59.697Z,11.80
2022-10-05T00:58:43.556Z,11.79
2022-10-05T01:01:15.849Z,11.76
2022-10-05T01:04:05.346Z,11.75
2022-10-05T01:07:16.245Z,11.76
2022-10-05T01:10:05.736Z,11.72
2022-10-05T01:12:50.386Z,11.67
2022-10-05T01:15:35.327Z,11.71
2022-10-05T01:18:31.351Z,11.74
2022-10-05T01:21:13.643Z,11.74
2022-10-05T01:24:01.644Z,11.71
2022-10-05T01:26:59.497Z,11.72
2022-10-05T01:29:38.175Z,11.74
2022-10-05T01:32:09.251Z,11.73
2022-10-05T01:34:42.400Z,11.77
2022-10-05T01:37:19.125Z,11.77
2022-10-05T01:40:12.785Z,11.77
2022-10-05T01:42:49.219Z,11.82
2022-10-05T01:45:21.932Z,11.81
2022-10-05T01:47:50.309Z,11.79
2022-10-05T01:50:29.939Z,11.79
2022-10-05T01:53:20.423Z,11.77
2022-10-05T01:55:56.551Z,11.73
2022-10-05T01:58:39.857Z,11.74
2022-10-05T02:01:18.245Z,11.69
2022-10-05T02:03:53.569Z,11.72
2022-10-05T02:06:24.082Z,11.73
2022-10-05T02:09:11.889Z,11.71
2022-10-05T02:11:44.209Z,11.71
2022-10-05T02:14:13.297Z,11.68
2022-10-05T02:16:41.996Z,11.69
2022-10-05T02:19:16.211Z,11.65
2022-10-05T02:21:47.371Z,11.62
2022-10-05T02:24:21.718Z,11.62
2022-10-05T02:26:51.245Z,11.59
2022-10-05T02:29:21.785Z,11.58
2022-10-05T02:31:53.301Z,11.57
2022-10-05T02:34:46.600Z,11.52
2022-10-05T02:37:29.917Z,11.50
2022-10-05T02:40:18.664Z,11.50
2022-10-05T02:43:09.223Z,11.46
2022-10-05T02:45:44.980Z,11.43
2022-10-05T02:48:27.342Z,11.45
2022-10-05T02:51:03.082Z,11.43
2022-10-05T02:53:39.925Z,11.41
2022-10-05T02:56:15.639Z,11.40
2022-10-05T02:58:50.127Z,11.36
2022-10-05T03:01:29.588Z,11.35
2022-10-05T03:04:07.888Z,11.34
2022-10-05T03:06:50.073Z,11.33
2022-10-05T03:09:17.919Z,11.34
2022-10-05T03:11:59.114Z,11.35
2022-10-05T03:14:27.126Z,11.33
2022-10-05T03:17:11.974Z,11.33
2022-10-05T03:19:54.785Z,11.34
2022-10-05T03:22:27.858Z,11.35
2022-10-05T03:25:18.427Z,11.42
2022-10-05T03:28:04.367Z,11.44
2022-10-05T03:31:03.488Z,11.44
2022-10-05T03:33:46.797Z,11.44
2022-10-05T03:36:30.666Z,11.47
2022-10-05T03:39:04.307Z,11.47
2022-10-05T03:41:43.098Z,11.45
2022-10-05T03:44:25.624Z,11.50
2022-10-05T03:47:07.627Z,11.57
2022-10-05T03:49:59.199Z,11.55
2022-10-05T03:52:45.833Z,11.53
2022-10-05T03:55:31.609Z,11.64
2022-10-05T03:58:03.740Z,11.65
2022-10-05T04:00:31.413Z,11.65
2022-10-05T04:03:08.043Z,11.53
2022-10-05T04:06:19.334Z,11.69
2022-10-05T04:09:00.759Z,11.72
2022-10-05T04:11:35.138Z,11.70
2022-10-05T04:14:10.531Z,11.67
2022-10-05T04:16:45.405Z,11.74
2022-10-05T04:19:19.064Z,11.78
2022-10-05T04:21:52.463Z,11.81
2022-10-05T04:24:26.470Z,11.82
2022-10-05T04:27:00.021Z,11.77
2022-10-05T04:29:33.874Z,11.80
2022-10-05T04:32:19.756Z,11.81
2022-10-05T04:34:49.500Z,11.77
2022-10-05T04:37:32.742Z,11.80
2022-10-05T04:40:08.799Z,11.78
2022-10-05T04:42:46.665Z,11.82
2022-10-05T04:45:39.186Z,11.81
2022-10-05T04:48:35.515Z,11.83
2022-10-05T04:51:17.637Z,11.83
2022-10-05T04:53:54.689Z,11.83
2022-10-05T04:56:31.228Z,11.86
2022-10-05T04:59:17.631Z,11.89
2022-10-05T05:01:47.236Z,11.88
2022-10-05T05:04:17.181Z,11.88
2022-10-05T05:06:53.541Z,11.64
2022-10-05T05:09:42.020Z,11.55
2022-10-05T05:12:13.796Z,11.62
2022-10-05T05:15:18.209Z,11.80
2022-10-05T05:17:59.775Z,11.87
2022-10-05T05:21:04.727Z,11.89
2022-10-05T05:23:50.996Z,11.92
2022-10-05T05:26:30.119Z,11.92
2022-10-05T05:29:34.992Z,11.84
2022-10-05T05:32:14.641Z,11.90
2022-10-05T05:35:00.070Z,11.86
2022-10-05T05:37:32.961Z,11.94
2022-10-05T05:40:21.310Z,11.97
2022-10-05T05:43:15.025Z,11.87
2022-10-05T05:45:43.720Z,11.87
2022-10-05T05:48:26.466Z,11.96
2022-10-05T05:50:59.367Z,11.84
2022-10-05T05:53:32.297Z,11.95
2022-10-05T05:56:04.677Z,12.06
2022-10-05T05:58:34.419Z,12.11
2022-10-05T06:01:33.950Z,12.16
2022-10-05T06:04:22.203Z,12.14
2022-10-05T06:06:52.423Z,12.09
2022-10-05T06:09:31.286Z,12.20
2022-10-05T06:12:15.628Z,12.23
2022-10-05T06:14:56.823Z,12.32
2022-10-05T06:17:43.898Z,12.21
2022-10-05T06:20:28.096Z,12.26
2022-10-05T06:22:59.880Z,12.37
2022-10-05T06:25:42.617Z,12.37
2022-10-05T06:28:14.041Z,12.34
2022-10-05T06:31:05.229Z,12.24
2022-10-05T06:33:47.045Z,12.30
2022-10-05T06:36:39.732Z,12.26
2022-10-05T06:39:38.001Z,12.22
2022-10-05T06:42:13.809Z,12.40
2022-10-05T06:45:08.254Z,12.51
2022-10-05T06:48:05.575Z,12.64
2022-10-05T06:51:13.597Z,12.39
2022-10-05T06:54:18.533Z,12.49
2022-10-05T06:56:50.013Z,12.58
2022-10-05T06:59:25.757Z,12.54
2022-10-05T07:02:06.724Z,12.47
2022-10-05T07:05:12.487Z,12.59
2022-10-05T07:08:20.811Z,12.50
2022-10-05T07:10:59.802Z,12.26
2022-10-05T07:13:54.724Z,12.41
2022-10-05T07:16:47.934Z,12.58
2022-10-05T07:19:33.646Z,12.62
2022-10-05T07:22:39.710Z,12.66
2022-10-05T07:25:30.324Z,12.84
2022-10-05T07:28:06.066Z,12.69
2022-10-05T07:30:40.586Z,12.90
2022-10-05T07:33:31.697Z,13.17
2022-10-05T07:36:31.917Z,13.10
2022-10-05T07:39:11.887Z,12.96
2022-10-05T07:41:48.448Z,13.08
2022-10-05T07:44:30.037Z,13.27
2022-10-05T07:47:18.121Z,13.70
2022-10-05T07:50:05.999Z,13.89
2022-10-05T07:52:36.889Z,14.01
2022-10-05T07:55:26.190Z,13.80
2022-10-05T07:58:13.235Z,13.67
2022-10-05T08:00:59.708Z,14.01
2022-10-05T08:03:45.011Z,14.16
2022-10-05T08:06:24.606Z,14.31
2022-10-05T08:09:08.436Z,14.44
2022-10-05T08:11:52.468Z,14.46
2022-10-05T08:14:44.215Z,14.59
2022-10-05T08:17:21.670Z,14.63
2022-10-05T08:20:03.984Z,14.55
2022-10-05T08:22:38.286Z,14.51
2022-10-05T08:25:13.032Z,14.49
2022-10-05T08:27:50.862Z,14.68
2022-10-05T08:30:17.782Z,14.97
2022-10-05T08:33:03.385Z,15.27
2022-10-05T08:35:39.664Z,15.49
2022-10-05T08:38:31.237Z,15.80
2022-10-05T08:41:36.208Z,16.05
2022-10-05T08:44:09.190Z,16.17
2022-10-05T08:47:11.230Z,16.38
2022-10-05T08:49:46.926Z,16.53
2022-10-05T08:52:25.506Z,16.76
2022-10-05T08:55:10.539Z,16.95
2022-10-05T08:57:49.584Z,16.75
2022-10-05T09:00:22.001Z,16.64
2022-10-05T09:03:28.189Z,16.62
2022-10-05T09:06:16.826Z,16.73
2022-10-05T09:09:22.222Z,16.81
2022-10-05T09:12:27.817Z,16.98
2022-10-05T09:15:24.413Z,16.84
2022-10-05T09:18:29.349Z,16.84
2022-10-05T09:21:10.032Z,16.98
2022-10-05T09:23:39.985Z,17.04
2022-10-05T09:26:25.286Z,17.07
2022-10-05T09:29:07.302Z,17.06
2022-10-05T09:31:55.250Z,17.16
2022-10-05T09:34:37.197Z,17.03
2022-10-05T09:37:34.767Z,16.86
2022-10-05T09:40:37.510Z,17.07
2022-10-05T09:43:23.322Z,17.17
2022-10-05T09:46:29.500Z,17.29
2022-10-05T09:49:14.979Z,17.30
2022-10-05T09:52:19.145Z,17.58
2022-10-05T09:55:10.254Z,17.91
2022-10-05T09:57:39.981Z,17.98
2022-10-05T10:00:15.534Z,18.15
2022-10-05T10:03:02.562Z,18.60
2022-10-05T10:05:52.358Z,18.80
2022-10-05T10:08:43.805Z,19.02
2022-10-05T10:11:24.185Z,19.16
2022-10-05T10:14:14.474Z,19.24
2022-10-05T10:17:03.028Z,19.37
2022-10-05T10:20:07.296Z,19.15
2022-10-05T10:22:43.090Z,19.12
2022-10-05T10:25:35.061Z,19.11
2022-10-05T10:28:23.826Z,18.78
2022-10-05T10:31:16.950Z,18.69
2022-10-05T10:33:46.595Z,18.91
2022-10-05T10:36:33.925Z,18.97
2022-10-05T10:39:29.828Z,18.90
2022-10-05T10:42:07.210Z,18.94
2022-10-05T10:44:49.363Z,19.01
2022-10-05T10:47:28.782Z,18.86
2022-10-05T10:50:24.224Z,19.03
2022-10-05T10:53:10.529Z,18.95
2022-10-05T10:56:05.407Z,19.33
2022-10-05T10:58:51.839Z,19.59
2022-10-05T11:01:33.738Z,20.00
2022-10-05T11:04:07.714Z,20.38
2022-10-05T11:07:05.687Z,20.89
2022-10-05T11:09:53.605Z,21.03
2022-10-05T11:12:41.641Z,20.90
2022-10-05T11:15:20.705Z,21.14
2022-10-05T11:17:58.181Z,21.28
2022-10-05T11:20:42.326Z,21.29
2022-10-05T11:23:27.510Z,21.50
2022-10-05T11:26:16.140Z,21.74
2022-10-05T11:28:54.392Z,21.62
2022-10-05T11:31:31.285Z,21.48
2022-10-05T11:34:09.594Z,21.62
2022-10-05T11:36:42.256Z,21.65
2022-10-05T11:39:39.221Z,21.70
2022-10-05T11:42:23.909Z,21.62
2022-10-05T11:45:06.385Z,21.57
2022-10-05T11:47:40.714Z,21.42
2022-10-05T11:50:26.988Z,21.25
2022-10-05T11:53:04.493Z,21.04
2022-10-05T11:55:40.494Z,20.90
2022-10-05T11:58:51.276Z,21.11
2022-10-05T12:01:25.114Z,20.97
2022-10-05T12:04:16.827Z,21.02
2022-10-05T12:07:04.061Z,20.85
2022-10-05T12:10:02.860Z,20.68
2022-10-05T12:12:36.009Z,20.66
2022-10-05T12:15:27.135Z,20.60
2022-10-05T12:18:10.868Z,20.65
2022-10-05T12:20:46.900Z,20.68
2022-10-05T12:23:21.052Z,20.64
2022-10-05T12:25:51.414Z,20.51
2022-10-05T12:28:23.837Z,20.46
2022-10-05T12:31:13.908Z,20.30
2022-10-05T12:34:12.526Z,20.28
2022-10-05T12:37:06.456Z,20.44
2022-10-05T12:40:11.623Z,20.45
2022-10-05T12:42:47.799Z,20.50
2022-10-05T12:45:30.249Z,20.51
2022-10-05T12:48:02.302Z,20.71
2022-10-05T12:50:35.618Z,20.80
2022-10-05T12:53:11.400Z,20.90
2022-10-05T12:56:05.138Z,20.92
2022-10-05T12:58:48.937Z,20.95
2022-10-05T13:01:27.532Z,21.04
2022-10-05T13:04:22.332Z,21.11
2022-10-05T13:07:07.707Z,21.14
2022-10-05T13:09:43.143Z,21.27
2022-10-05T13:12:52.488Z,21.29
2022-10-05T13:15:20.550Z,21.26
2022-10-05T13:18:03.384Z,21.24
2022-10-05T13:20:47.618Z,21.23
2022-10-05T13:23:30.196Z,21.16
2022-10-05T13:26:04.145Z,21.20
2022-10-05T13:28:36.311Z,21.22
2022-10-05T13:31:07.300Z,21.16
2022-10-05T13:33:54.914Z,21.21
2022-10-05T13:36:53.082Z,21.28
2022-10-05T13:39:46.041Z,21.18
2022-10-05T13:42:19.665Z,21.21
2022-10-05T13:45:04.603Z,21.25
2022-10-05T13:48:06.760Z,21.15
2022-10-05T13:50:35.694Z,21.10
2022-10-05T13:53:43.287Z,21.16
2022-10-05T13:56:42.999Z,21.07
2022-10-05T13:59:43.866Z,20.82
2022-10-05T14:02:12.884Z,20.89
2022-10-05T14:04:51.085Z,20.87
2022-10-05T14:07:31.788Z,20.85
2022-10-05T14:09:59.797Z,20.78
2022-10-05T14:12:27.745Z,20.85
2022-10-05T14:14:57.441Z,20.59
2022-10-05T14:17:33.389Z,20.66
2022-10-05T14:20:01.366Z,20.48
2022-10-05T14:22:29.353Z,20.44
2022-10-05T14:25:03.244Z,20.48
2022-10-05T14:27:33.331Z,20.58
2022-10-05T14:30:19.590Z,20.47
2022-10-05T14:33:00.602Z,20.23
2022-10-05T14:35:32.776Z,20.08
2022-10-05T14:38:02.369Z,20.13
2022-10-05T14:40:38.145Z,20.05
2022-10-05T14:43:22.974Z,19.98
2022-10-05T14:45:55.922Z,20.00
2022-10-05T14:48:22.866Z,19.95
2022-10-05T14:50:59.497Z,19.85
2022-10-05T14:53:38.134Z,19.94
2022-10-05T14:56:17.745Z,19.92
2022-10-05T14:58:50.779Z,19.78
2022-10-05T15:01:26.724Z,19.96
2022-10-05T15:04:18.166Z,20.03
2022-10-05T15:07:04.104Z,19.77
2022-10-05T15:09:55.545Z,19.73
2022-10-05T15:12:29.811Z,19.77
2022-10-05T15:15:03.812Z,19.97
2022-10-05T15:17:41.198Z,19.88
2022-10-05T15:20:29.154Z,19.79
2022-10-05T15:23:24.999Z,19.81
2022-10-05T15:26:29.088Z,19.82
2022-10-05T15:28:55.966Z,19.83
2022-10-05T15:31:39.426Z,19.63
2022-10-05T15:34:30.741Z,19.52
2022-10-05T15:37:22.489Z,19.52
2022-10-05T15:39:58.400Z,19.48
2022-10-05T15:42:36.657Z,19.35
2022-10-05T15:45:15.810Z,19.27
2022-10-05T15:48:01.723Z,19.21
2022-10-05T15:50:57.070Z,19.26
2022-10-05T15:53:33.498Z,19.35
2022-10-05T15:56:04.851Z,19.32
2022-10-05T15:58:46.832Z,19.26
2022-10-05T16:01:20.864Z,19.16
2022-10-05T16:04:11.575Z,19.22
2022-10-05T16:07:01.986Z,19.20
2022-10-05T16:09:53.654Z,19.14
2022-10-05T16:12:29.271Z,19.20
2022-10-05T16:15:16.387Z,19.27
2022-10-05T16:18:00.957Z,19.31
2022-10-05T16:20:41.154Z,19.15
2022-10-05T16:23:48.004Z,19.07
2022-10-05T16:26:31.835Z,19.16
2022-10-05T16:29:11.944Z,19.11
2022-10-05T16:31:54.576Z,19.14
2022-10-05T16:34:45.630Z,19.19
2022-10-05T16:37:28.338Z,19.03
2022-10-05T16:40:00.752Z,18.92
2022-10-05T16:42:46.795Z,18.93
2022-10-05T16:45:16.582Z,19.05
2022-10-05T16:48:02.767Z,19.02
2022-10-05T16:51:07.702Z,18.97
2022-10-05T16:53:39.721Z,18.84
2022-10-05T16:56:11.366Z,18.75
2022-10-05T16:59:15.876Z,18.69
2022-10-05T17:02:03.315Z,18.55
2022-10-05T17:04:41.250Z,18.44
2022-10-05T17:07:39.475Z,18.31
2022-10-05T17:10:30.310Z,18.19
2022-10-05T17:13:03.176Z,18.04
2022-10-05T17:15:42.834Z,17.96
2022-10-05T17:18:27.951Z,17.84
2022-10-05T17:21:34.920Z,17.75
2022-10-05T17:24:24.875Z,17.64
2022-10-05T17:27:25.839Z,17.54
2022-10-05T17:29:55.879Z,17.41
2022-10-05T17:32:22.586Z,17.39
2022-10-05T17:35:01.612Z,17.30
2022-10-05T17:37:28.298Z,17.22
2022-10-05T17:39:55.980Z,17.17
2022-10-05T17:46:46.052Z,16.99
2022-10-05T17:49:34.141Z,16.89
2022-10-05T17:52:22.720Z,16.89
2022-10-05T17:55:08.684Z,16.80
2022-10-05T17:57:37.160Z,16.72
2022-10-05T18:00:06.066Z,16.65
2022-10-05T18:02:36.607Z,16.63
2022-10-05T18:05:12.302Z,16.56
2022-10-05T18:07:49.890Z,16.48
2022-10-05T18:10:29.344Z,16.42
2022-10-05T18:12:59.081Z,16.36
2022-10-05T18:15:25.905Z,16.30
2022-10-05T18:18:20.554Z,16.24
2022-10-05T18:21:18.553Z,16.19
2022-10-05T18:24:01.832Z,16.09
2022-10-05T18:26:52.409Z,16.09
2022-10-05T18:30:00.639Z,16.04
2022-10-05T18:32:52.162Z,15.99
2022-10-05T18:35:29.733Z,15.93
2022-10-05T18:38:06.047Z,15.89
2022-10-05T18:40:49.134Z,15.88
2022-10-05T18:43:56.496Z,15.81
2022-10-05T18:46:34.115Z,15.75
2022-10-05T18:49:19.245Z,15.71
2022-10-05T18:51:59.014Z,15.67
2022-10-05T18:54:40.967Z,15.62
2022-10-05T18:57:26.668Z,15.56
2022-10-05T19:00:23.788Z,15.54
2022-10-05T19:03:01.037Z,15.48
2022-10-05T19:05:49.119Z,15.42
2022-10-05T19:08:42.066Z,15.38
2022-10-05T19:11:29.987Z,15.34
2022-10-05T19:14:18.569Z,15.30
2022-10-05T19:16:51.771Z,15.25
2022-10-05T19:19:39.063Z,15.21
2022-10-05T19:22:15.083Z,15.19
2022-10-05T19:24:44.918Z,15.16
2022-10-05T19:27:28.199Z,15.13
2022-10-05T19:30:25.387Z,15.11
2022-10-05T19:33:22.917Z,15.07
2022-10-05T19:36:23.219Z,15.03
2022-10-05T19:39:08.218Z,14.97
2022-10-05T19:41:40.918Z,14.97
2022-10-05T19:44:10.707Z,14.95
2022-10-05T19:46:46.559Z,14.94
2022-10-05T19:49:36.280Z,14.90
2022-10-05T19:52:13.131Z,14.86
2022-10-05T19:54:41.935Z,14.85
2022-10-05T19:57:18.119Z,14.83
2022-10-05T19:59:46.802Z,14.80
2022-10-05T20:02:17.265Z,14.80
2022-10-05T20:04:46.039Z,14.77
2022-10-05T20:07:21.765Z,14.78
2022-10-05T20:09:52.328Z,14.78
2022-10-05T20:12:23.104Z,14.78
2022-10-05T20:15:24.399Z,14.74
2022-10-05T20:18:09.970Z,14.70
2022-10-05T20:20:47.166Z,14.67
2022-10-05T20:23:28.108Z,14.68
2022-10-05T20:26:13.460Z,14.62
2022-10-05T20:28:40.324Z,14.65
2022-10-05T20:31:08.256Z,14.63
2022-10-05T20:33:35.102Z,14.63
2022-10-05T20:36:03.851Z,14.58
2022-10-05T20:38:31.644Z,14.60
2022-10-05T20:40:58.705Z,14.77
2022-10-05T20:43:25.459Z,14.75
2022-10-05T20:45:52.373Z,14.73
2022-10-05T20:48:19.972Z,14.74
2022-10-05T20:50:47.417Z,14.78
2022-10-05T20:53:14.140Z,14.84
2022-10-05T20:55:40.968Z,14.88
2022-10-05T20:58:09.127Z,15.06
2022-10-05T21:00:54.494Z,14.98
2022-10-05T21:03:21.239Z,15.01
2022-10-05T21:05:48.013Z,15.16
2022-10-05T21:08:15.333Z,15.16
2022-10-05T21:10:42.036Z,15.20
2022-10-05T21:13:09.264Z,15.24
2022-10-05T21:15:36.095Z,15.31
2022-10-05T21:18:02.783Z,15.41
2022-10-05T21:20:29.470Z,15.43
2022-10-05T21:22:56.124Z,15.38
2022-10-05T21:25:22.816Z,15.45
2022-10-05T21:27:50.350Z,15.43
2022-10-05T21:30:17.126Z,15.51
2022-10-05T21:32:44.770Z,15.54
2022-10-05T21:35:11.662Z,15.62
2022-10-05T21:37:38.395Z,15.71
2022-10-05T21:40:05.435Z,15.63
2022-10-05T21:42:32.213Z,15.79
2022-10-05T21:44:59.007Z,15.78
2022-10-05T21:47:25.812Z,15.82
2022-10-05T21:49:52.548Z,15.83
2022-10-05T21:52:19.669Z,15.86
2022-10-05T21:54:47.019Z,15.90
2022-10-05T21:57:14.815Z,15.95
2022-10-05T21:59:42.275Z,15.93
2022-10-05T22:02:08.985Z,15.83
2022-10-05T22:04:35.675Z,15.89
2022-10-05T22:07:09.737Z,15.91
2022-10-05T22:09:36.403Z,16.00
2022-10-05T22:12:03.066Z,15.99
2022-10-05T22:14:29.735Z,16.13
2022-10-05T22:16:56.469Z,16.20
2022-10-05T22:19:23.166Z,16.05
2022-10-05T22:21:49.797Z,16.11
2022-10-05T22:24:16.449Z,16.15
2022-10-05T22:26:44.882Z,16.26
2022-10-05T22:29:11.964Z,16.30
2022-10-05T22:31:39.230Z,16.26
2022-10-05T22:34:06.042Z,16.17
2022-10-05T22:36:35.405Z,16.21
2022-10-05T22:39:02.085Z,16.32
2022-10-05T22:41:28.836Z,16.34
2022-10-05T22:43:55.453Z,16.38
2022-10-05T22:46:22.111Z,16.30
2022-10-05T22:48:48.784Z,16.10
2022-10-05T22:51:15.544Z,16.18
2022-10-05T22:53:42.248Z,16.13
2022-10-05T22:56:11.085Z,16.12
2022-10-05T22:58:38.097Z,16.19
2022-10-05T23:01:07.255Z,16.08
2022-10-05T23:03:34.605Z,16.08
2022-10-05T23:06:04.777Z,16.04
2022-10-05T23:08:32.714Z,16.17
2022-10-05T23:11:04.243Z,16.19
2022-10-05T23:13:31.092Z,16.12
2022-10-05T23:15:57.759Z,16.16
2022-10-05T23:18:24.546Z,16.14
2022-10-05T23:20:57.549Z,16.26
2022-10-05T23:23:24.246Z,16.20
2022-10-05T23:25:51.046Z,16.10
2022-10-05T23:28:17.760Z,16.11
2022-10-05T23:30:44.752Z,16.15
2022-10-05T23:33:11.441Z,16.26
2022-10-05T23:35:38.145Z,16.26
2022-10-05T23:38:04.947Z,16.27
2022-10-05T23:40:31.620Z,16.21
2022-10-05T23:42:58.648Z,16.23
2022-10-05T23:45:25.326Z,16.26
2022-10-05T23:47:51.959Z,16.25
2022-10-05T23:50:20.642Z,16.15
2022-10-05T23:52:47.288Z,16.18
2022-10-05T23:55:13.986Z,16.25
2022-10-05T23:57:40.665Z,16.24
